Time;durP1;ratioP1;P1;durP2;ratioP2;P2;SDS_P1;SDS_P2;PMS_P1;PMS_P2;Temp;Humidity;BMP_temperature;BMP_pressure;BME280_temperature;BME280_humidity;BME280_pressure;Samples;Min_cycle;Max_cycle;Signal;HPM_P1;HPM_P2
2021/07/18 00:02:01;;;;;;;9.85;6.63;;;;;;;;;;4988797;28;20441;-74
2021/07/18 00:04:26;;;;;;;9.30;7.47;;;;;;;;;;4978240;28;20238;-74
2021/07/18 00:06:51;;;;;;;10.15;8.00;;;;;;;;;;5001946;28;20183;-74
2021/07/18 00:09:17;;;;;;;12.43;8.50;;;;;;;;;;4979641;28;20216;-75
2021/07/18 00:11:42;;;;;;;11.27;7.88;;;;;;;;;;4975192;28;20239;-74
2021/07/18 00:14:09;;;;;;;11.40;8.18;;;;;;;;;;4977745;28;20217;-74
2021/07/18 00:16:34;;;;;;;10.65;7.82;;;;;;;;;;4985130;28;20180;-74
2021/07/18 00:19:00;;;;;;;10.80;8.10;;;;;;;;;;4977267;28;20676;-74
2021/07/18 00:21:25;;;;;;;11.77;7.60;;;;;;;;;;4984460;28;20212;-74
2021/07/18 00:23:50;;;;;;;10.47;7.83;;;;;;;;;;4978221;28;20262;-74
2021/07/18 00:26:15;;;;;;;10.18;8.02;;;;;;;;;;4982344;28;20437;-75
2021/07/18 00:28:41;;;;;;;9.73;7.30;;;;;;;;;;4980161;28;20199;-75
2021/07/18 00:31:07;;;;;;;10.63;8.18;;;;;;;;;;4972885;28;20545;-74
2021/07/18 00:33:32;;;;;;;10.60;7.57;;;;;;;;;;4983103;28;20258;-75
2021/07/18 00:35:57;;;;;;;10.68;8.05;;;;;;;;;;4975885;28;20184;-74
2021/07/18 00:38:22;;;;;;;10.80;7.80;;;;;;;;;;4979497;28;20525;-73
2021/07/18 00:40:49;;;;;;;9.80;7.97;;;;;;;;;;4979808;28;20562;-74
2021/07/18 00:43:14;;;;;;;12.07;7.93;;;;;;;;;;5003802;28;20481;-75
2021/07/18 00:45:40;;;;;;;11.15;7.97;;;;;;;;;;4974279;28;20192;-75
2021/07/18 00:48:06;;;;;;;10.77;7.60;;;;;;;;;;4982591;28;20191;-75
2021/07/18 00:50:32;;;;;;;12.57;8.05;;;;;;;;;;4980634;28;20199;-74
2021/07/18 00:52:57;;;;;;;9.10;7.15;;;;;;;;;;5001896;28;20262;-74
2021/07/18 00:55:22;;;;;;;8.23;7.05;;;;;;;;;;4985778;28;20175;-75
2021/07/18 00:57:48;;;;;;;10.40;8.15;;;;;;;;;;4986790;28;20176;-75
2021/07/18 01:00:15;;;;;;;11.90;8.48;;;;;;;;;;4980487;28;20196;-75
2021/07/18 01:02:40;;;;;;;12.15;8.45;;;;;;;;;;4984391;28;20187;-74
2021/07/18 01:05:06;;;;;;;12.43;9.20;;;;;;;;;;4982834;28;20570;-75
2021/07/18 01:07:32;;;;;;;11.65;8.18;;;;;;;;;;4978226;28;20622;-75
2021/07/18 01:09:57;;;;;;;13.75;8.85;;;;;;;;;;4982210;28;20215;-74
2021/07/18 01:12:22;;;;;;;10.95;8.00;;;;;;;;;;4989872;28;20729;-75
2021/07/18 01:14:48;;;;;;;12.70;8.38;;;;;;;;;;4989479;28;20254;-75
2021/07/18 01:17:14;;;;;;;12.25;8.77;;;;;;;;;;4987577;28;20172;-74
2021/07/18 01:19:40;;;;;;;13.25;8.48;;;;;;;;;;4991593;23;20229;-73
2021/07/18 01:22:05;;;;;;;10.45;7.78;;;;;;;;;;5006752;28;20207;-74
2021/07/18 01:24:31;;;;;;;9.45;8.45;;;;;;;;;;4995475;28;20187;-71
2021/07/18 01:26:57;;;;;;;15.40;9.07;;;;;;;;;;4999532;28;20258;-71
2021/07/18 01:29:22;;;;;;;13.52;9.77;;;;;;;;;;5001070;28;20184;-72
2021/07/18 01:31:48;;;;;;;10.07;8.88;;;;;;;;;;4987950;28;20207;-71
2021/07/18 01:34:13;;;;;;;13.55;10.48;;;;;;;;;;4987621;28;20176;-71
2021/07/18 01:36:38;;;;;;;14.15;8.80;;;;;;;;;;4987295;28;20633;-72
2021/07/18 01:39:05;;;;;;;14.05;9.48;;;;;;;;;;4986563;28;20634;-72
2021/07/18 01:41:31;;;;;;;14.73;9.55;;;;;;;;;;4987073;28;20208;-71
2021/07/18 01:43:56;;;;;;;10.32;9.23;;;;;;;;;;4989715;28;20183;-74
2021/07/18 01:46:21;;;;;;;10.40;8.90;;;;;;;;;;4989925;28;20234;-71
2021/07/18 01:48:50;;;;;;;9.82;8.45;;;;;;;;;;4979419;28;20173;-71
2021/07/18 01:51:19;;;;;;;13.90;8.93;;;;;;;;;;4989354;28;20277;-72
2021/07/18 01:53:44;;;;;;;13.88;9.93;;;;;;;;;;4979133;28;20733;-71
2021/07/18 01:56:09;;;;;;;11.65;9.40;;;;;;;;;;4987251;28;20282;-71
2021/07/18 01:58:35;;;;;;;14.88;8.70;;;;;;;;;;4990833;28;20191;-72
2021/07/18 02:01:00;;;;;;;12.13;9.50;;;;;;;;;;4982225;28;20622;-72
2021/07/18 02:03:25;;;;;;;11.75;10.05;;;;;;;;;;4987286;28;20275;-72
2021/07/18 02:05:51;;;;;;;10.45;9.18;;;;;;;;;;4985425;28;20238;-72
2021/07/18 02:08:17;;;;;;;14.02;9.32;;;;;;;;;;4989812;28;20198;-72
2021/07/18 02:10:44;;;;;;;13.93;9.82;;;;;;;;;;4987572;28;20223;-71
2021/07/18 02:13:13;;;;;;;10.95;8.93;;;;;;;;;;4990510;28;20203;-72
2021/07/18 02:15:38;;;;;;;9.90;8.75;;;;;;;;;;4979679;28;20212;-72
2021/07/18 02:18:03;;;;;;;10.13;8.75;;;;;;;;;;4976449;28;20208;-71
2021/07/18 02:20:29;;;;;;;12.73;9.55;;;;;;;;;;4978671;28;20257;-72
2021/07/18 02:22:54;;;;;;;10.70;9.10;;;;;;;;;;4987568;28;20183;-71
2021/07/18 02:25:21;;;;;;;10.82;8.57;;;;;;;;;;4978601;28;20645;-73
2021/07/18 02:27:47;;;;;;;11.13;8.30;;;;;;;;;;4983948;28;20570;-73
2021/07/18 02:30:13;;;;;;;9.80;8.65;;;;;;;;;;4987076;28;20286;-73
2021/07/18 02:32:41;;;;;;;12.02;8.52;;;;;;;;;;4981758;28;20215;-73
2021/07/18 02:35:07;;;;;;;10.02;8.93;;;;;;;;;;4984109;28;20172;-71
2021/07/18 02:37:32;;;;;;;10.40;8.82;;;;;;;;;;4986642;28;20186;-71
2021/07/18 02:39:58;;;;;;;9.57;8.57;;;;;;;;;;4988252;28;20257;-73
2021/07/18 02:42:23;;;;;;;12.90;10.07;;;;;;;;;;4987011;28;20195;-73
2021/07/18 02:44:48;;;;;;;12.70;9.68;;;;;;;;;;4988201;28;20211;-73
2021/07/18 02:47:13;;;;;;;14.90;9.80;;;;;;;;;;4987659;28;20207;-71
2021/07/18 02:49:38;;;;;;;13.00;9.50;;;;;;;;;;4985874;28;20425;-73
2021/07/18 02:52:04;;;;;;;9.77;8.05;;;;;;;;;;4986273;28;20479;-73
2021/07/18 02:54:30;;;;;;;13.23;9.30;;;;;;;;;;4979518;28;20189;-72
2021/07/18 02:56:55;;;;;;;12.30;8.95;;;;;;;;;;4985030;28;20568;-72
2021/07/18 02:59:20;;;;;;;10.98;9.30;;;;;;;;;;4976635;28;20642;-72
2021/07/18 03:01:45;;;;;;;10.63;9.00;;;;;;;;;;4987285;28;20286;-72
2021/07/18 03:04:11;;;;;;;11.65;9.98;;;;;;;;;;4988391;28;20441;-72
2021/07/18 03:06:36;;;;;;;8.73;7.68;;;;;;;;;;4990842;28;20187;-72
2021/07/18 03:09:01;;;;;;;9.80;8.30;;;;;;;;;;4984723;28;20188;-73
2021/07/18 03:11:26;;;;;;;11.30;9.27;;;;;;;;;;4984551;28;20462;-73
2021/07/18 03:13:51;;;;;;;10.65;8.73;;;;;;;;;;4982265;28;20202;-71
2021/07/18 03:16:16;;;;;;;10.70;8.57;;;;;;;;;;4984561;28;20192;-73
2021/07/18 03:18:42;;;;;;;12.73;8.07;;;;;;;;;;4983774;28;20455;-73
2021/07/18 03:21:07;;;;;;;11.27;7.82;;;;;;;;;;4978117;28;20216;-71
2021/07/18 03:23:32;;;;;;;10.82;8.70;;;;;;;;;;4980725;28;20617;-72
2021/07/18 03:25:57;;;;;;;12.00;9.15;;;;;;;;;;4982558;28;20616;-73
2021/07/18 03:28:23;;;;;;;12.60;9.90;;;;;;;;;;4984308;28;20729;-73
2021/07/18 03:30:48;;;;;;;10.10;8.60;;;;;;;;;;4987538;28;20575;-73
2021/07/18 03:33:13;;;;;;;11.23;9.30;;;;;;;;;;4987620;28;20218;-72
2021/07/18 03:35:39;;;;;;;12.15;9.02;;;;;;;;;;4977811;28;20188;-72
2021/07/18 03:38:04;;;;;;;11.48;8.80;;;;;;;;;;4997150;28;20187;-73
2021/07/18 03:40:29;;;;;;;17.10;10.63;;;;;;;;;;4988010;28;20210;-72
2021/07/18 03:42:55;;;;;;;9.63;7.75;;;;;;;;;;4981853;28;20188;-73
2021/07/18 03:45:20;;;;;;;15.50;10.43;;;;;;;;;;4975898;28;20171;-73
2021/07/18 03:47:46;;;;;;;11.50;8.90;;;;;;;;;;4984620;28;20316;-73
2021/07/18 03:50:13;;;;;;;12.35;9.52;;;;;;;;;;4989133;28;20196;-73
2021/07/18 03:52:38;;;;;;;14.60;9.95;;;;;;;;;;4985832;28;20215;-73
2021/07/18 03:55:04;;;;;;;12.52;8.68;;;;;;;;;;4979343;28;20242;-73
2021/07/18 03:57:30;;;;;;;10.68;8.40;;;;;;;;;;4998113;28;20172;-73
2021/07/18 03:59:55;;;;;;;12.18;9.07;;;;;;;;;;4984460;28;20191;-73
2021/07/18 04:02:20;;;;;;;11.32;8.55;;;;;;;;;;4986139;28;20183;-73
2021/07/18 04:04:45;;;;;;;16.15;9.95;;;;;;;;;;4986277;28;20266;-73
2021/07/18 04:07:11;;;;;;;11.77;9.07;;;;;;;;;;4977976;28;20175;-71
2021/07/18 04:09:36;;;;;;;12.40;9.05;;;;;;;;;;4983781;28;20176;-70
2021/07/18 04:12:01;;;;;;;9.60;8.40;;;;;;;;;;4985528;28;20618;-73
2021/07/18 04:14:26;;;;;;;12.20;10.00;;;;;;;;;;4985757;28;20265;-73
2021/07/18 04:16:51;;;;;;;11.40;8.82;;;;;;;;;;4975110;28;20186;-70
2021/07/18 04:19:16;;;;;;;10.53;8.47;;;;;;;;;;4987504;28;20649;-71
2021/07/18 04:21:42;;;;;;;10.55;9.35;;;;;;;;;;4985486;28;20560;-71
2021/07/18 04:24:07;;;;;;;9.77;8.00;;;;;;;;;;4982564;28;20227;-72
2021/07/18 04:26:32;;;;;;;8.93;7.28;;;;;;;;;;4988794;28;20499;-72
2021/07/18 04:28:57;;;;;;;13.43;9.52;;;;;;;;;;5002473;28;20180;-72
2021/07/18 04:31:22;;;;;;;8.17;7.30;;;;;;;;;;4981265;28;20222;-73
2021/07/18 04:33:50;;;;;;;8.85;7.93;;;;;;;;;;4983487;28;20780;-73
2021/07/18 04:36:15;;;;;;;11.48;8.70;;;;;;;;;;4987401;28;20190;-73
2021/07/18 04:38:40;;;;;;;12.90;9.52;;;;;;;;;;4987746;28;20258;-73
2021/07/18 04:41:06;;;;;;;10.80;8.55;;;;;;;;;;4984382;28;20652;-71
2021/07/18 04:43:31;;;;;;;11.27;8.15;;;;;;;;;;4987392;28;20183;-71
2021/07/18 04:45:56;;;;;;;9.03;8.00;;;;;;;;;;4988026;28;20306;-71
2021/07/18 04:48:21;;;;;;;9.10;7.20;;;;;;;;;;4985160;28;20444;-71
2021/07/18 04:50:47;;;;;;;8.13;7.33;;;;;;;;;;4985567;28;20429;-70
2021/07/18 04:53:12;;;;;;;9.43;7.28;;;;;;;;;;4984359;28;20466;-69
2021/07/18 04:55:37;;;;;;;6.82;6.07;;;;;;;;;;4987468;28;20299;-70
2021/07/18 04:58:02;;;;;;;9.40;6.60;;;;;;;;;;4984649;28;20176;-71
2021/07/18 05:00:28;;;;;;;6.68;5.90;;;;;;;;;;4984934;28;20207;-71
2021/07/18 05:02:53;;;;;;;9.07;5.47;;;;;;;;;;4964483;28;20191;-71
2021/07/18 05:05:19;;;;;;;6.33;5.73;;;;;;;;;;4970534;28;20203;-71
2021/07/18 05:07:54;;;;;;;6.82;5.65;;;;;;;;;;4972924;28;20433;-70
2021/07/18 05:10:20;;;;;;;6.07;5.43;;;;;;;;;;4971686;28;20572;-72
2021/07/18 05:12:46;;;;;;;6.18;5.13;;;;;;;;;;4974018;28;20211;-71
2021/07/18 05:15:12;;;;;;;5.75;5.05;;;;;;;;;;4973238;28;20179;-72
2021/07/18 05:17:37;;;;;;;6.97;5.53;;;;;;;;;;4969946;28;20688;-71
2021/07/18 05:20:03;;;;;;;6.47;5.30;;;;;;;;;;4971493;28;20200;-71
2021/07/18 05:22:29;;;;;;;6.68;5.97;;;;;;;;;;4975938;28;20267;-71
2021/07/18 05:24:54;;;;;;;6.57;5.72;;;;;;;;;;4972966;28;20180;-70
2021/07/18 05:27:20;;;;;;;5.65;5.15;;;;;;;;;;4977187;28;20271;-72
2021/07/18 05:29:45;;;;;;;8.15;5.60;;;;;;;;;;4975830;28;20179;-72
2021/07/18 05:32:10;;;;;;;7.25;5.68;;;;;;;;;;4971533;28;20231;-71
2021/07/18 05:34:35;;;;;;;7.78;6.30;;;;;;;;;;4973910;28;20661;-71
2021/07/18 05:37:00;;;;;;;11.23;6.63;;;;;;;;;;4978658;28;20191;-71
2021/07/18 05:39:26;;;;;;;8.85;6.72;;;;;;;;;;4975804;28;20184;-71
2021/07/18 05:41:51;;;;;;;8.02;6.18;;;;;;;;;;4977009;28;20200;-72
2021/07/18 05:44:16;;;;;;;9.40;6.20;;;;;;;;;;4977565;28;20188;-71
2021/07/18 05:46:41;;;;;;;8.10;7.30;;;;;;;;;;4978644;28;20191;-71
2021/07/18 05:49:06;;;;;;;7.97;6.77;;;;;;;;;;4981157;28;20440;-71
2021/07/18 05:51:31;;;;;;;10.17;7.40;;;;;;;;;;4978428;28;20985;-72
2021/07/18 05:53:57;;;;;;;9.63;6.07;;;;;;;;;;4975892;28;20425;-72
2021/07/18 05:56:22;;;;;;;7.90;5.83;;;;;;;;;;4975978;28;21807;-72
2021/07/18 05:58:47;;;;;;;7.97;5.77;;;;;;;;;;4977107;28;20520;-71
2021/07/18 06:01:12;;;;;;;7.88;6.93;;;;;;;;;;4980794;28;20440;-71
2021/07/18 06:03:38;;;;;;;7.85;5.82;;;;;;;;;;4975745;28;20183;-71
2021/07/18 06:06:03;;;;;;;6.80;5.43;;;;;;;;;;4977501;28;20203;-72
2021/07/18 06:08:28;;;;;;;9.03;5.90;;;;;;;;;;4980526;28;20440;-71
2021/07/18 06:10:53;;;;;;;7.80;6.00;;;;;;;;;;4980200;28;20663;-71
2021/07/18 06:13:18;;;;;;;8.70;6.53;;;;;;;;;;4981293;28;20852;-72
2021/07/18 06:15:44;;;;;;;6.95;6.25;;;;;;;;;;4974752;28;20175;-72
2021/07/18 06:18:09;;;;;;;7.10;5.47;;;;;;;;;;4978121;28;20187;-70
2021/07/18 06:20:38;;;;;;;8.03;5.80;;;;;;;;;;4979851;28;20514;-70
2021/07/18 06:23:03;;;;;;;6.30;5.65;;;;;;;;;;4978894;28;20425;-70
2021/07/18 06:25:28;;;;;;;8.50;6.63;;;;;;;;;;4979286;28;20253;-70
2021/07/18 06:27:54;;;;;;;9.68;6.78;;;;;;;;;;4980389;28;20339;-70
2021/07/18 06:30:19;;;;;;;8.32;6.13;;;;;;;;;;4977579;28;20211;-70
2021/07/18 06:32:44;;;;;;;10.02;6.45;;;;;;;;;;4977367;28;20298;-71
2021/07/18 06:35:10;;;;;;;10.20;6.97;;;;;;;;;;4975653;28;20222;-70
2021/07/18 06:37:35;;;;;;;10.50;6.72;;;;;;;;;;4978655;28;20187;-71
2021/07/18 06:40:01;;;;;;;11.18;6.30;;;;;;;;;;4980804;28;20550;-71
2021/07/18 06:42:27;;;;;;;7.80;6.00;;;;;;;;;;4981045;28;20685;-71
2021/07/18 06:44:52;;;;;;;9.20;5.78;;;;;;;;;;4979749;28;20188;-71
2021/07/18 06:47:17;;;;;;;6.38;4.88;;;;;;;;;;4976434;28;20203;-71
2021/07/18 06:49:42;;;;;;;6.07;4.43;;;;;;;;;;4979412;28;20657;-71
2021/07/18 06:52:07;;;;;;;4.37;3.93;;;;;;;;;;4977270;28;20548;-71
2021/07/18 06:54:32;;;;;;;4.73;4.23;;;;;;;;;;4974942;28;20828;-70
2021/07/18 06:56:58;;;;;;;6.57;4.43;;;;;;;;;;4974575;28;20435;-71
2021/07/18 06:59:23;;;;;;;5.40;3.97;;;;;;;;;;4974248;28;20215;-70
2021/07/18 07:01:48;;;;;;;6.93;4.83;;;;;;;;;;4980064;28;20456;-71
2021/07/18 07:04:13;;;;;;;5.40;4.20;;;;;;;;;;4977866;28;20496;-70
2021/07/18 07:06:38;;;;;;;6.77;3.80;;;;;;;;;;4976737;28;20478;-70
2021/07/18 07:09:04;;;;;;;6.30;3.90;;;;;;;;;;4973437;28;20537;-71
2021/07/18 07:11:29;;;;;;;4.97;3.60;;;;;;;;;;4978267;28;20452;-71
2021/07/18 07:13:54;;;;;;;5.47;3.87;;;;;;;;;;4975359;28;20737;-71
2021/07/18 07:16:19;;;;;;;4.50;3.70;;;;;;;;;;4980626;28;20491;-71
2021/07/18 07:18:45;;;;;;;6.53;3.97;;;;;;;;;;4981393;28;20445;-70
2021/07/18 07:21:13;;;;;;;6.32;4.05;;;;;;;;;;4996255;23;20243;-75
2021/07/18 07:23:38;;;;;;;4.43;3.30;;;;;;;;;;4969109;28;20650;-74
2021/07/18 07:26:04;;;;;;;4.18;3.35;;;;;;;;;;4969833;28;20191;-74
2021/07/18 07:28:30;;;;;;;4.55;3.05;;;;;;;;;;4979957;28;20191;-73
2021/07/18 07:30:56;;;;;;;4.50;3.42;;;;;;;;;;4960834;28;20204;-74
2021/07/18 07:33:22;;;;;;;6.47;4.15;;;;;;;;;;4959867;28;20225;-75
2021/07/18 07:35:47;;;;;;;6.13;3.23;;;;;;;;;;4951556;28;20264;-74
2021/07/18 07:38:12;;;;;;;4.60;3.35;;;;;;;;;;4943532;28;20504;-74
2021/07/18 07:40:37;;;;;;;4.43;3.40;;;;;;;;;;4952125;28;20204;-74
2021/07/18 07:43:03;;;;;;;5.57;3.10;;;;;;;;;;4961571;28;20654;-74
2021/07/18 07:45:28;;;;;;;4.45;3.00;;;;;;;;;;4949903;28;20182;-73
2021/07/18 07:47:53;;;;;;;5.30;2.67;;;;;;;;;;4949880;28;20501;-74
2021/07/18 07:50:18;;;;;;;4.23;2.63;;;;;;;;;;4936248;28;20267;-74
2021/07/18 07:52:44;;;;;;;5.83;2.13;;;;;;;;;;4957404;28;21020;-74
2021/07/18 07:55:09;;;;;;;2.88;1.98;;;;;;;;;;4939926;28;20431;-74
2021/07/18 07:57:34;;;;;;;3.22;1.55;;;;;;;;;;4950079;28;20242;-74
2021/07/18 07:59:59;;;;;;;2.83;1.60;;;;;;;;;;4948855;28;20260;-73
2021/07/18 08:02:25;;;;;;;5.97;1.60;;;;;;;;;;4958100;28;20434;-73
2021/07/18 08:04:50;;;;;;;2.60;1.77;;;;;;;;;;4957100;28;20184;-73
2021/07/18 08:07:15;;;;;;;3.30;1.93;;;;;;;;;;4962938;28;20191;-73
2021/07/18 08:09:40;;;;;;;2.88;1.77;;;;;;;;;;4960865;28;20188;-74
2021/07/18 08:12:06;;;;;;;5.03;2.47;;;;;;;;;;4959564;28;20208;-74
2021/07/18 08:14:31;;;;;;;3.13;1.48;;;;;;;;;;4950275;28;20433;-74
2021/07/18 08:16:56;;;;;;;3.88;1.67;;;;;;;;;;4953241;28;20180;-73
2021/07/18 08:19:22;;;;;;;7.47;1.77;;;;;;;;;;4958297;28;20180;-74
2021/07/18 08:21:47;;;;;;;2.70;1.60;;;;;;;;;;4961001;28;20697;-73
2021/07/18 08:24:12;;;;;;;2.17;1.65;;;;;;;;;;4958754;28;20478;-73
2021/07/18 08:26:38;;;;;;;1.70;1.60;;;;;;;;;;4959213;28;20208;-74
2021/07/18 08:29:04;;;;;;;5.22;1.90;;;;;;;;;;4958486;28;21532;-73
2021/07/18 08:31:29;;;;;;;3.65;2.00;;;;;;;;;;4959483;28;20283;-73
2021/07/18 08:33:55;;;;;;;2.47;1.52;;;;;;;;;;4952936;28;20211;-74
2021/07/18 08:36:21;;;;;;;7.88;2.05;;;;;;;;;;4954814;28;20589;-74
2021/07/18 08:38:46;;;;;;;3.63;1.60;;;;;;;;;;4950663;28;20173;-73
2021/07/18 08:41:12;;;;;;;3.60;1.87;;;;;;;;;;4960339;28;20204;-73
2021/07/18 08:43:37;;;;;;;3.83;1.50;;;;;;;;;;4959871;28;20180;-74
2021/07/18 08:46:03;;;;;;;2.55;1.70;;;;;;;;;;4953011;28;20188;-73
2021/07/18 08:48:29;;;;;;;4.03;1.67;;;;;;;;;;4953168;28;20180;-73
2021/07/18 08:50:54;;;;;;;3.78;1.60;;;;;;;;;;4951130;28;20271;-73
2021/07/18 08:53:20;;;;;;;7.07;1.70;;;;;;;;;;4952785;28;20208;-74
2021/07/18 08:55:45;;;;;;;4.53;1.77;;;;;;;;;;4950501;28;20184;-74
2021/07/18 08:58:11;;;;;;;5.57;1.43;;;;;;;;;;4948767;28;20189;-74
2021/07/18 09:00:36;;;;;;;4.18;2.30;;;;;;;;;;4947929;28;21010;-74
2021/07/18 09:03:01;;;;;;;4.18;1.60;;;;;;;;;;4950513;28;20904;-73
2021/07/18 09:05:26;;;;;;;2.90;1.53;;;;;;;;;;4948666;28;20244;-73
2021/07/18 09:07:53;;;;;;;3.17;1.67;;;;;;;;;;4951187;28;20177;-73
2021/07/18 09:10:20;;;;;;;4.85;1.30;;;;;;;;;;4950028;28;20246;-72
2021/07/18 09:13:04;;;;;;;3.50;1.98;;;;;;;;;;4961100;28;20631;-73
2021/07/18 09:15:40;;;;;;;2.35;1.33;;;;;;;;;;4957721;28;20557;-73
2021/07/18 09:18:09;;;;;;;4.35;1.83;;;;;;;;;;4945221;28;20225;-73
2021/07/18 09:21:01;;;;;;;7.18;1.95;;;;;;;;;;4958294;28;20207;-74
2021/07/18 09:23:30;;;;;;;4.75;1.30;;;;;;;;;;4958466;28;20250;-72
2021/07/18 09:26:14;;;;;;;2.70;1.50;;;;;;;;;;4961542;28;20267;-75
2021/07/18 09:28:39;;;;;;;1.63;1.08;;;;;;;;;;4942084;28;20203;-74
2021/07/18 09:31:25;;;;;;;3.33;1.40;;;;;;;;;;4945256;28;20205;-73
2021/07/18 09:34:08;;;;;;;5.07;1.98;;;;;;;;;;4963336;28;20595;-74
2021/07/18 09:36:33;;;;;;;4.22;1.65;;;;;;;;;;4956386;28;20230;-74
2021/07/18 09:39:05;;;;;;;3.30;1.60;;;;;;;;;;4956749;28;20275;-74
2021/07/18 09:41:36;;;;;;;2.72;1.90;;;;;;;;;;4944854;28;20260;-74
2021/07/18 09:44:01;;;;;;;2.88;1.58;;;;;;;;;;4958240;28;20224;-73
2021/07/18 09:46:31;;;;;;;1.58;1.40;;;;;;;;;;4964757;28;20223;-74
2021/07/18 09:48:57;;;;;;;5.28;2.05;;;;;;;;;;4956383;28;20186;-73
2021/07/18 09:51:22;;;;;;;3.17;2.10;;;;;;;;;;4950627;28;20761;-74
2021/07/18 09:54:05;;;;;;;2.17;1.20;;;;;;;;;;4955192;28;20267;-74
2021/07/18 09:56:32;;;;;;;2.63;1.38;;;;;;;;;;4959654;28;20251;-73
2021/07/18 09:58:57;;;;;;;4.55;1.42;;;;;;;;;;4956949;28;20212;-73
2021/07/18 10:01:23;;;;;;;2.20;1.10;;;;;;;;;;4941521;28;20205;-74
2021/07/18 10:03:49;;;;;;;2.63;1.67;;;;;;;;;;4960800;28;20182;-74
2021/07/18 10:06:15;;;;;;;4.03;1.67;;;;;;;;;;4961219;28;20271;-75
2021/07/18 10:08:42;;;;;;;4.00;1.42;;;;;;;;;;4960833;28;20299;-74
2021/07/18 10:11:08;;;;;;;2.80;1.70;;;;;;;;;;4946129;28;20203;-74
2021/07/18 10:13:33;;;;;;;3.72;1.50;;;;;;;;;;4945300;28;20223;-74
2021/07/18 10:15:58;;;;;;;3.28;1.60;;;;;;;;;;4944299;28;20184;-75
2021/07/18 10:18:24;;;;;;;3.72;1.55;;;;;;;;;;4961283;28;20266;-74
2021/07/18 10:20:49;;;;;;;3.35;1.30;;;;;;;;;;4959618;28;20207;-74
2021/07/18 10:23:16;;;;;;;2.77;1.40;;;;;;;;;;4960142;28;20611;-74
2021/07/18 10:25:41;;;;;;;2.53;1.42;;;;;;;;;;4960243;28;20199;-75
2021/07/18 10:28:06;;;;;;;3.47;1.33;;;;;;;;;;4960352;28;20191;-74
2021/07/18 10:30:34;;;;;;;1.90;1.33;;;;;;;;;;4960074;28;20251;-74
2021/07/18 10:33:00;;;;;;;3.80;1.80;;;;;;;;;;4943707;28;20462;-74
2021/07/18 10:35:25;;;;;;;2.42;1.67;;;;;;;;;;4962684;28;20263;-74
2021/07/18 10:37:51;;;;;;;3.47;1.73;;;;;;;;;;4959363;28;20223;-73
2021/07/18 10:40:21;;;;;;;1.98;1.27;;;;;;;;;;4962362;28;20218;-73
2021/07/18 10:42:47;;;;;;;2.58;1.63;;;;;;;;;;4955942;28;20680;-74
2021/07/18 10:45:15;;;;;;;3.03;1.50;;;;;;;;;;4962385;28;20188;-74
2021/07/18 10:47:57;;;;;;;3.22;1.35;;;;;;;;;;4961911;28;20192;-74
2021/07/18 10:50:57;;;;;;;5.22;1.50;;;;;;;;;;4959473;28;20207;-73
2021/07/18 10:53:25;;;;;;;2.75;1.40;;;;;;;;;;4921064;29;20244;-74
2021/07/18 10:55:51;;;;;;;4.18;1.80;;;;;;;;;;4956192;28;20188;-74
2021/07/18 10:58:34;;;;;;;1.92;1.33;;;;;;;;;;4953719;28;20184;-74
2021/07/18 11:01:00;;;;;;;4.40;1.67;;;;;;;;;;4932587;28;20204;-75
2021/07/18 11:03:32;;;;;;;2.58;1.90;;;;;;;;;;4949607;28;20604;-75
2021/07/18 11:06:17;;;;;;;5.43;1.95;;;;;;;;;;4949702;28;20549;-74
2021/07/18 11:09:01;;;;;;;2.78;1.60;;;;;;;;;;4948758;28;20231;-73
2021/07/18 11:11:36;;;;;;;3.20;1.40;;;;;;;;;;4950670;28;20208;-73
2021/07/18 11:14:20;;;;;;;3.28;1.60;;;;;;;;;;4953580;28;20221;-74
2021/07/18 11:16:46;;;;;;;5.70;1.63;;;;;;;;;;4951086;28;20175;-73
2021/07/18 11:19:30;;;;;;;4.22;1.52;;;;;;;;;;4949421;28;20239;-75
2021/07/18 11:21:55;;;;;;;4.07;1.90;;;;;;;;;;4951973;28;20620;-74
2021/07/18 11:24:40;;;;;;;3.03;1.33;;;;;;;;;;4950251;28;20184;-74
2021/07/18 11:27:21;;;;;;;4.75;1.70;;;;;;;;;;4954402;28;20204;-75
2021/07/18 11:29:47;;;;;;;3.40;1.38;;;;;;;;;;4931373;28;20216;-73
2021/07/18 11:32:22;;;;;;;2.93;1.50;;;;;;;;;;4937857;28;20347;-74
2021/07/18 11:34:48;;;;;;;2.10;1.40;;;;;;;;;;4932981;28;20175;-75
2021/07/18 11:37:14;;;;;;;3.72;1.50;;;;;;;;;;4947610;28;20186;-74
2021/07/18 11:39:42;;;;;;;2.90;1.67;;;;;;;;;;4953372;28;20186;-73
2021/07/18 11:42:07;;;;;;;2.60;1.60;;;;;;;;;;4942416;28;20553;-75
2021/07/18 11:44:32;;;;;;;2.60;1.40;;;;;;;;;;4950290;28;20183;-74
2021/07/18 11:46:59;;;;;;;3.28;1.40;;;;;;;;;;4950390;28;20180;-73
2021/07/18 11:49:28;;;;;;;1.75;1.23;;;;;;;;;;4951355;28;21928;-72
2021/07/18 11:51:53;;;;;;;2.75;1.80;;;;;;;;;;4940791;28;20199;-73
2021/07/18 11:54:20;;;;;;;3.22;1.45;;;;;;;;;;4950771;28;20210;-72
2021/07/18 11:56:46;;;;;;;1.90;1.35;;;;;;;;;;4952449;28;20187;-71
2021/07/18 11:59:15;;;;;;;3.25;1.40;;;;;;;;;;4948643;28;20494;-74
2021/07/18 12:01:41;;;;;;;2.22;1.50;;;;;;;;;;4953551;28;20729;-73
2021/07/18 12:04:07;;;;;;;3.95;1.50;;;;;;;;;;4963192;28;20184;-73
2021/07/18 12:06:33;;;;;;;3.90;1.85;;;;;;;;;;4948627;28;20251;-73
2021/07/18 12:08:59;;;;;;;3.45;1.77;;;;;;;;;;4931552;28;20176;-76
2021/07/18 12:11:26;;;;;;;2.25;1.88;;;;;;;;;;4951018;28;20530;-75
2021/07/18 12:13:53;;;;;;;3.63;1.80;;;;;;;;;;4933976;28;20211;-77
2021/07/18 12:16:18;;;;;;;1.90;1.67;;;;;;;;;;4950472;28;20242;-76
2021/07/18 12:18:45;;;;;;;4.07;1.63;;;;;;;;;;4949364;28;20234;-77
2021/07/18 12:21:14;;;;;;;3.03;1.90;;;;;;;;;;4948819;28;20222;-76
2021/07/18 12:23:40;;;;;;;2.65;1.88;;;;;;;;;;4947725;28;20852;-76
2021/07/18 12:26:05;;;;;;;1.73;1.63;;;;;;;;;;4950540;28;20187;-76
2021/07/18 12:28:30;;;;;;;3.90;1.90;;;;;;;;;;4937161;28;20445;-77
2021/07/18 12:30:55;;;;;;;1.80;1.70;;;;;;;;;;4937932;28;20445;-76
2021/07/18 12:33:21;;;;;;;1.57;1.47;;;;;;;;;;4951491;28;20272;-76
2021/07/18 12:35:58;;;;;;;4.60;1.80;;;;;;;;;;4931181;28;20176;-76
2021/07/18 12:38:23;;;;;;;3.30;2.05;;;;;;;;;;4932483;28;20212;-76
2021/07/18 12:40:49;;;;;;;2.60;1.60;;;;;;;;;;4950788;28;21071;-76
2021/07/18 12:43:14;;;;;;;1.97;1.73;;;;;;;;;;4939325;28;21876;-76
2021/07/18 12:45:39;;;;;;;2.10;1.73;;;;;;;;;;4947493;28;20275;-75
2021/07/18 12:48:04;;;;;;;3.70;1.80;;;;;;;;;;4935545;28;20479;-76
2021/07/18 12:50:29;;;;;;;3.60;2.03;;;;;;;;;;4948270;28;20204;-76
2021/07/18 12:52:56;;;;;;;5.10;2.20;;;;;;;;;;4943013;28;20227;-76
2021/07/18 12:55:26;;;;;;;2.58;1.70;;;;;;;;;;4954933;28;20439;-76
2021/07/18 12:57:51;;;;;;;2.95;1.73;;;;;;;;;;4939783;28;20785;-76
2021/07/18 13:00:18;;;;;;;3.30;2.33;;;;;;;;;;4953843;28;20208;-76
2021/07/18 13:02:44;;;;;;;4.47;2.00;;;;;;;;;;4954628;28;20192;-76
2021/07/18 13:05:10;;;;;;;4.17;1.90;;;;;;;;;;4937632;28;20508;-76
2021/07/18 13:07:37;;;;;;;2.35;1.90;;;;;;;;;;4954224;28;20437;-75
2021/07/18 13:10:06;;;;;;;2.90;1.83;;;;;;;;;;4950382;28;20220;-76
2021/07/18 13:12:31;;;;;;;2.72;2.20;;;;;;;;;;4956085;28;20208;-76
2021/07/18 13:15:10;;;;;;;2.77;1.67;;;;;;;;;;4952420;28;20187;-77
2021/07/18 13:17:47;;;;;;;3.58;1.83;;;;;;;;;;4954105;28;20252;-75
2021/07/18 13:20:13;;;;;;;2.72;1.92;;;;;;;;;;4952900;28;20837;-75
2021/07/18 13:22:43;;;;;;;1.88;1.77;;;;;;;;;;4952514;28;20246;-76
2021/07/18 13:25:24;;;;;;;2.95;2.15;;;;;;;;;;4951385;28;20263;-76
2021/07/18 13:27:58;;;;;;;3.50;2.00;;;;;;;;;;4950923;28;20235;-75
2021/07/18 13:30:29;;;;;;;2.05;1.83;;;;;;;;;;4951447;28;20839;-75
2021/07/18 13:32:54;;;;;;;3.20;2.03;;;;;;;;;;4958293;28;20333;-75
2021/07/18 13:35:21;;;;;;;2.30;1.90;;;;;;;;;;4955465;28;20267;-77
2021/07/18 13:37:48;;;;;;;3.45;2.15;;;;;;;;;;4960237;28;20173;-75
2021/07/18 13:40:26;;;;;;;2.45;2.13;;;;;;;;;;4951961;28;20677;-75
2021/07/18 13:43:03;;;;;;;2.80;1.98;;;;;;;;;;4939065;28;20193;-75
2021/07/18 13:45:28;;;;;;;2.67;2.30;;;;;;;;;;4949297;28;20817;-75
2021/07/18 13:47:53;;;;;;;2.23;1.80;;;;;;;;;;4951751;28;20270;-74
2021/07/18 13:50:18;;;;;;;4.95;1.83;;;;;;;;;;4947587;28;20255;-72
2021/07/18 13:52:43;;;;;;;4.75;1.90;;;;;;;;;;4942850;28;20208;-72
2021/07/18 13:55:09;;;;;;;2.70;1.83;;;;;;;;;;4957186;28;20677;-74
2021/07/18 13:57:34;;;;;;;3.30;1.95;;;;;;;;;;4954417;28;20187;-74
2021/07/18 14:00:01;;;;;;;3.13;1.50;;;;;;;;;;4939585;28;20183;-77
2021/07/18 14:02:26;;;;;;;2.42;2.08;;;;;;;;;;4948886;28;20415;-75
2021/07/18 14:04:51;;;;;;;1.70;1.60;;;;;;;;;;4952596;28;20619;-77
2021/07/18 14:07:16;;;;;;;3.33;1.77;;;;;;;;;;4954417;28;20181;-76
2021/07/18 14:09:42;;;;;;;2.17;1.70;;;;;;;;;;4934933;28;20184;-75
2021/07/18 14:12:07;;;;;;;2.53;2.20;;;;;;;;;;4959347;28;20208;-76
2021/07/18 14:14:32;;;;;;;5.07;2.50;;;;;;;;;;4950150;28;20459;-76
2021/07/18 14:16:57;;;;;;;2.53;2.33;;;;;;;;;;4950403;28;20188;-75
2021/07/18 14:19:23;;;;;;;5.07;2.33;;;;;;;;;;4940775;28;20423;-75
2021/07/18 14:21:48;;;;;;;3.57;2.20;;;;;;;;;;4962513;28;20267;-76
2021/07/18 14:24:13;;;;;;;3.87;2.30;;;;;;;;;;4954993;28;20999;-80
2021/07/18 14:26:38;;;;;;;2.90;2.50;;;;;;;;;;4949762;28;20184;-74
2021/07/18 14:29:05;;;;;;;2.43;2.10;;;;;;;;;;4948933;28;20609;-74
2021/07/18 14:31:30;;;;;;;3.00;2.33;;;;;;;;;;4935985;28;20764;-75
2021/07/18 14:33:55;;;;;;;3.10;2.80;;;;;;;;;;4951246;28;20216;-76
2021/07/18 14:36:21;;;;;;;2.73;2.30;;;;;;;;;;4951205;28;20442;-76